Tiempo atmosférico en la estación meteorológica de Benahavis, Málaga (399 m.)



Fecha
DESCASC
Temp. máxima en grados centígrados (hora)
DESCASC
Temp. mínima en grados centígrados (hora)
DESCASC
Temp. media en grados centígrados
DESCASC
Racha de viento máxima en m/sg (hora)
DESCASC
Velocidad máxima media en intervalos de 10 minutos(hora)
DESCASC
Precipitaciones diarias en mm
DESCASC
Precipitaciones de 00:00 a 06:00 en mm
DESCASC
Precipitaciones de 06:00 a 12:00 en mm
DESCASC
Precipitaciones de 12:00 a 18:00 en mm
DESCASC
Precipitaciones de 18:00 a 24:00 en mm
DESCASC
22-01-2020 9.2 (17:50) 5.2 (03:10) 7.2 6.94 (01:50) 3.61 (16:50) 37.8 19.4 7.8 7 3.6
21-01-2020 11 (14:50) 5.6 (01:40) 8.3 6.39 (11:50) 3.61 (03:10) 1.6 0.2 0 0 1.4
20-01-2020 8.8 (00:00) 5.4 (14:30) 7.1 11.39 (00:50) 5.28 (00:50) 5.4 0 0 5 0.4
19-01-2020 14.5 (13:00) 8.7 (00:00) 11.6 16.11 (05:10) 7.22 (22:40) 0.4 0.4 0 0 0
18-01-2020 15.9 (14:40) 10.1 (00:00) 13 5.28 (22:10) 2.22 (23:59) 0 0 0 0 0
17-01-2020 18.5 (13:40) 9.1 (00:00) 13.8 6.11 (13:30) 2.78 (13:30) 0 0 0 0 0
16-01-2020 17.6 (16:20) 6.8 (00:00) 12.2 4.72 (15:30) 2.5 (15:30) 0 0 0 0 0
15-01-2020 18.8 (16:20) 7.4 (00:00) 13.1 3.89 (15:20) 2.22 (14:10) 0 0 0 0 0
14-01-2020 15.1 (13:50) 6.1 (00:00) 10.6 8.33 (12:20) 4.17 (12:20) 0 0 0 0 0
13-01-2020 15.6 (15:50) 5.9 (00:00) 10.8 5 (15:30) 2.5 (15:30) 0 0 0 0 0
12-01-2020 16.7 (15:50) 6.3 (00:00) 11.5 5 (15:20) 2.78 (14:40) 0 0 0 0 0
11-01-2020 16.4 (15:50) 7.7 (00:00) 12 8.06 (00:10) 4.17 (00:10) 0 0 0 0 0
10-01-2020 14.9 (15:00) 7.4 (00:00) 11.1 10 (22:40) 5 (22:50) 0 0 0 0 0
09-01-2020 12.9 (14:00) 6.6 (00:00) 9.7 3.33 (11:20) 1.94 (11:30) 0 0 0 0 0
08-01-2020 17.8 (16:30) 5.7 (00:00) 11.7 3.89 (14:40) 2.22 (14:40) 0 0 0 0 0
07-01-2020 15.6 (16:20) 5.8 (00:00) 10.7 4.72 (14:10) 2.78 (14:10) 0 0 0 0 0
06-01-2020 13.7 (13:50) 6.1 (00:00) 9.9 5 (05:10) 1.94 (05:10) 0 0 0 0 0
05-01-2020 12.7 (16:20) 6.6 (00:00) 9.6 6.94 (06:50) 3.89 (06:40) 0 0 0 0 0
04-01-2020 13.6 (14:50) 6.7 (00:00) 10.2 5.83 (15:00) 2.22 (15:00) 0 0 0 0 0
03-01-2020 16.4 (16:30) 7.3 (00:00) 11.8 4.72 (15:00) 2.5 (14:20) 0 0 0 0 0
02-01-2020 15.5 (16:10) 7.1 (00:00) 11.3 4.17 (16:00) 2.5 (16:20) 0 0 0 0 0
01-01-2020 16.1 (15:30) 6.8 (00:00) 11.5 4.17 (15:50) 2.22 (15:10) 0 0 0 0 0
31-12-2019 13.6 (15:10) 7.1 (00:00) 10.4 5.83 (00:40) 3.06 (11:40) 0 0 0 0 0
30-12-2019 -- (--) -- (--) -- -- (--) -- (--) -- 0 0 -- 0
29-12-2019 13.7 (14:00) 7.9 (00:00) 10.8 8.89 (10:10) 5 (10:00) 0 0 0 0 0
28-12-2019 15.1 (13:20) 8.3 (00:00) 11.7 6.11 (10:40) 2.5 (15:10) 0 0 0 0 0
27-12-2019 16.3 (04:20) 9 (00:00) 12.6 5.56 (04:30) 2.78 (04:00) 0 0 0 0 0
26-12-2019 21.8 (16:30) 12 (00:00) 16.9 2.78 (09:50) 1.67 (23:20) 0 0 0 0 0
25-12-2019 22.4 (16:10) 11.7 (00:00) 17 3.33 (14:40) 2.22 (14:50) 0 0 0 0 0

Gráficas

Temp. máximas Temp. mínimas Temp. medias Precipitaciones Rachas de viento máximas Velocidades máximas media en intervalos de 10 minutos

Datos horarios

Fecha y hora oficial Temperatura (ºC) Velocidad del viento (km/h) Dirección del viento Racha (km/h) Dirección de racha Precipitación (mm) Presión (hPa) Tendencia (hPa) Humedad (%)
2020-01-23 23:00:00 8.8 0 Calma 12 Sudoeste 1.8 -- -- 99
2020-01-23 22:00:00 8.7 2 Sudoeste 10 Sudoeste 0.2 -- -- 99
2020-01-23 21:00:00 8.6 3 Sudoeste 27 Oeste 18.6 -- -- 99
2020-01-23 20:00:00 11 3 Sudoeste 22 Sudeste 1.4 -- -- 100
2020-01-23 19:00:00 11 5 Sudoeste 27 Sudoeste 3 -- -- 100
2020-01-23 18:00:00 11 4 Oeste 31 Nordeste 0.6 -- -- 100
2020-01-23 17:00:00 11 8 Sudeste 28 Este 0.4 -- -- 99
2020-01-23 16:00:00 11.3 4 Noroeste 19 Norte 0 -- -- 98
2020-01-23 15:00:00 11.4 4 Este 14 Este 0 -- -- 96
2020-01-23 14:00:00 11.2 3 Nordeste 5 Nordeste 0.2 -- -- 94
2020-01-23 13:00:00 10.5 0 Calma 6 Sudoeste 0.6 -- -- 97
2020-01-23 12:00:00 9.9 2 Sur 5 Sur 0.2 -- -- 99
2020-01-23 11:00:00 8.6 2 Sudoeste 14 Sur 1 -- -- 99
2020-01-23 10:00:00 8.2 5 Nordeste 10 Este 0 -- -- 98
2020-01-23 09:00:00 7.7 6 Nordeste 21 Oeste 13.2 -- -- 97
2020-01-23 08:00:00 8.6 5 Nordeste 15 Sudeste 1.4 -- -- 98
2020-01-23 07:00:00 8.8 3 Nordeste 10 Nordeste 0 -- -- 98
2020-01-23 06:00:00 8.6 3 Este 6 Nordeste 0 -- -- 99
2020-01-23 05:00:00 8.3 0 Calma 7 Noroeste 2 -- -- 98
2020-01-23 04:00:00 8.2 4 Sudoeste 15 Sur 10.4 -- -- 98
2020-01-23 03:00:00 8.3 7 Nordeste 14 Nordeste 0.8 -- -- 96
2020-01-23 02:00:00 8.3 0 Calma 10 Nordeste 0.8 -- -- 98
2020-01-23 01:00:00 8 4 Nordeste 10 Nordeste 0.6 -- -- 97
2020-01-23 00:00:00 8.2 4 Norte 15 Nordeste 0.2 -- -- 96
2020-01-22 23:00:00 8.4 6 Nordeste 17 Nordeste 0.2 -- -- 98
2020-01-22 22:00:00 8.2 6 Nordeste 12 Nordeste 2.4 -- -- 97
2020-01-22 21:00:00 8 2 Nordeste 12 Nordeste 0.8 -- -- 94
2020-01-22 20:00:00 8.6 3 Este 18 Nordeste 0 -- -- 84
2020-01-22 19:00:00 8 9 Nordeste 19 Nordeste 0 -- -- 87
2020-01-22 18:00:00 9.1 3 Noroeste 19 Este 0 -- -- 84
2020-01-22 17:00:00 8.8 11 Nordeste 21 Nordeste 0 -- -- 84
2020-01-22 16:00:00 8.4 3 Nordeste 9 Este 0 -- -- 88
2020-01-22 15:00:00 8.2 5 Nordeste 15 Nordeste 0.6 -- -- 90
2020-01-22 14:00:00 8 0 Calma 11 Nordeste 2.4 -- -- 96
2020-01-22 13:00:00 7.7 7 Nordeste 21 Nordeste 4 -- -- 93
2020-01-22 12:00:00 7.5 3 Sudoeste 13 Sudoeste 0.4 -- -- 98
2020-01-22 11:00:00 7.3 2 Este 16 Norte 1.4 -- -- 97
2020-01-22 10:00:00 7.1 6 Nordeste 13 Sudoeste 4.4 -- -- 99
2020-01-22 09:00:00 6.9 3 Nordeste 5 Sur 1.6 -- -- 98
2020-01-22 08:00:00 6.5 3 Sudoeste 10 Nordeste 0 -- -- 97
2020-01-22 07:00:00 6.5 0 Calma 5 Nordeste 0 -- -- 98
2020-01-22 06:00:00 6.6 3 Nordeste 9 Nordeste 0.2 -- -- 98
2020-01-22 05:00:00 6.3 2 Nordeste 10 Sudoeste 0.2 -- -- 98
2020-01-22 04:00:00 6.1 0 Calma 11 Nordeste 2.4 -- -- 98
2020-01-22 03:00:00 5.3 4 Este 22 Sudoeste 13.4 -- -- 96
2020-01-22 02:00:00 7.5 8 Nordeste 25 Nordeste 0.2 -- -- 98
2020-01-22 01:00:00 7.3 8 Nordeste 18 Nordeste 3 -- -- 98
2020-01-22 00:00:00 7.5 6 Nordeste 21 Nordeste 0.8 -- -- 97
2020-01-21 23:00:00 7.3 5 Nordeste 11 Nordeste 0 -- -- 95
2020-01-21 22:00:00 7.4 4 Este 8 Nordeste 0.4 -- -- 93
2020-01-21 21:00:00 8.1 4 Nordeste 11 Nordeste 0.2 -- -- 89
2020-01-21 20:00:00 9 3 Nordeste 6 Este 0 -- -- 77
2020-01-21 19:00:00 9.2 3 Este 7 Este 0 -- -- 78
2020-01-21 18:00:00 9.7 3 Nordeste 6 Nordeste 0 -- -- 78
2020-01-21 17:00:00 10.1 2 Nordeste 7 Nordeste 0 -- -- 75
2020-01-21 16:00:00 10.5 3 Nordeste 8 Nordeste 0 -- -- 67
2020-01-21 15:00:00 10.8 6 Nordeste 16 Nordeste 0 -- -- 65
2020-01-21 14:00:00 10.5 4 Nordeste 10 Sur 0 -- -- 68
2020-01-21 13:00:00 10.1 5 Nordeste 19 Nordeste 0 -- -- 71
2020-01-21 12:00:00 9.9 12 Nordeste 23 Nordeste 0 -- -- 68
2020-01-21 11:00:00 9.6 3 Sudoeste 8 Sudoeste 0 -- -- 74
2020-01-21 10:00:00 7.2 0 Calma 11 Nordeste 0 -- -- 82
2020-01-21 09:00:00 6.8 7 Nordeste 15 Nordeste 0 -- -- 76
2020-01-21 08:00:00 6.2 0 Calma 5 Nordeste 0 -- -- 83
2020-01-21 07:00:00 6 3 Este 6 Este 0 -- -- 83
2020-01-21 06:00:00 6.1 4 Nordeste 17 Nordeste 0 -- -- 82
2020-01-21 05:00:00 6.9 10 Nordeste 15 Nordeste 0 -- -- 74
2020-01-21 04:00:00 6.7 0 Calma 22 Nordeste 0 -- -- 81
2020-01-21 03:00:00 6.2 8 Nordeste 18 Norte 0 -- -- 79
2020-01-21 02:00:00 5.6 4 Nordeste 9 Nordeste 0 -- -- 89
2020-01-21 01:00:00 6.1 0 Calma 4 Nordeste 0.2 -- -- 93
2020-01-21 00:00:00 6.5 3 Nordeste 12 Nordeste 0 -- -- 92
2020-01-20 23:00:00 7.5 8 Nordeste 30 Nordeste 0.4 -- -- 82
2020-01-20 22:00:00 8.5 14 Nordeste 33 Nordeste 0 -- -- 70
2020-01-20 21:00:00 8.3 13 Nordeste 37 Nordeste 0 -- -- 69
2020-01-20 20:00:00 7.3 14 Nordeste 24 Nordeste 0 -- -- 75
2020-01-20 19:00:00 6.9 11 Nordeste 26 Nordeste 0 -- -- 81
2020-01-20 18:00:00 6.3 8 Nordeste 32 Nordeste 0.2 -- -- 86
2020-01-20 17:00:00 6 15 Nordeste 30 Este 0.6 -- -- 85
2020-01-20 16:00:00 5.8 5 Nordeste 17 Nordeste 1.6 -- -- 91
2020-01-20 15:00:00 5.7 3 Sur 22 Nordeste 2.6 -- -- 94
2020-01-20 14:00:00 6.1 12 Nordeste 24 Nordeste 0 -- -- 82
2020-01-20 13:00:00 7.5 8 Nordeste 25 Nordeste 0 -- -- 65
2020-01-20 12:00:00 8.1 8 Nordeste 22 Nordeste 0 -- -- 59
2020-01-20 11:00:00 8 9 Nordeste 24 Norte 0 -- -- 59
2020-01-20 10:00:00 6.8 9 Nordeste 30 Nordeste 0 -- -- 62
2020-01-20 09:00:00 6.2 13 Nordeste 31 Nordeste 0 -- -- 62
2020-01-20 08:00:00 6.4 14 Nordeste 32 Nordeste 0 -- -- 62
2020-01-20 07:00:00 7.2 16 Nordeste 31 Nordeste 0 -- -- 58
2020-01-20 06:00:00 7.4 9 Nordeste 29 Nordeste 0 -- -- 59
2020-01-20 05:00:00 7.7 8 Norte 27 Norte 0 -- -- 58
2020-01-20 04:00:00 7.5 10 Nordeste 22 Nordeste 0 -- -- 61
2020-01-20 03:00:00 8 12 Norte 32 Norte 0 -- -- 58
2020-01-20 02:00:00 8.5 16 Nordeste 36 Nordeste 0 -- -- 57
2020-01-20 01:00:00 8.7 16 Norte 41 Norte 0 -- -- 57
2020-01-20 00:00:00 8.8 20 Norte 57 Norte 0 -- -- 58
2020-01-19 23:00:00 8.8 22 Norte 54 Norte 0 -- -- 58
2020-01-19 22:00:00 9 13 Norte 54 Nordeste 0 -- -- 60
2020-01-19 21:00:00 9.2 15 Norte 33 Norte 0 -- -- 59
2020-01-19 20:00:00 9.1 9 Nordeste 27 Este 0 -- -- 63
2020-01-19 19:00:00 9.1 4 Nordeste 21 Este 0 -- -- 70
2020-01-19 18:00:00 10.7 6 Este 25 Nordeste 0 -- -- 63
2020-01-19 17:00:00 11.5 9 Norte 39 Nordeste 0 -- -- 56
2020-01-19 16:00:00 12 4 Noroeste 17 Sudoeste 0 -- -- 65
2020-01-19 15:00:00 13 6 Sudoeste 26 Nordeste 0 -- -- 60
2020-01-19 14:00:00 14.2 5 Sudoeste 14 Sudoeste 0 -- -- 53
2020-01-19 13:00:00 14.5 5 Sur 19 Noroeste 0 -- -- 52
2020-01-19 12:00:00 12.7 7 Noroeste 36 Nordeste 0 -- -- 60
2020-01-19 11:00:00 11.4 18 Norte 42 Norte 0 -- -- 61
2020-01-19 10:00:00 9.4 6 Sur 22 Sudoeste 0 -- -- 74
2020-01-19 09:00:00 9.3 3 Oeste 37 Oeste 0 -- -- 70
2020-01-19 08:00:00 10 7 Sudoeste 24 Oeste 0 -- -- 68
2020-01-19 07:00:00 10.6 5 Sudeste 26 Sudoeste 0 -- -- 67
2020-01-19 06:00:00 10.5 6 Sudoeste 58 Oeste 0.2 -- -- 69
2020-01-19 05:00:00 10.9 11 Oeste 45 Sudoeste 0 -- -- 67
2020-01-19 04:00:00 11.8 14 Oeste 44 Sudoeste 0 -- -- 56
2020-01-19 03:00:00 12.2 10 Noroeste 39 Oeste 0 -- -- 74
2020-01-19 02:00:00 13 2 Oeste 15 Sur 0.2 -- -- 97
2020-01-19 01:00:00 13.3 3 Oeste 21 Sudoeste 0 -- -- 99
2020-01-19 00:00:00 13.2 8 Sudoeste 17 Sudoeste 0 -- -- 99
2020-01-18 23:00:00 12.8 5 Nordeste 19 Nordeste 0 -- -- 99
2020-01-18 22:00:00 12.6 4 Nordeste 10 Nordeste 0 -- -- 98
2020-01-18 21:00:00 12.7 0 Calma 6 Sudoeste 0 -- -- 97
2020-01-18 20:00:00 12.8 2 Sur 6 Sur 0 -- -- 96
2020-01-18 19:00:00 13.1 0 Calma 4 Sudoeste 0 -- -- 93
2020-01-18 18:00:00 13.5 0 Calma 2 Sudeste 0 -- -- 90
2020-01-18 17:00:00 14 2 Sudoeste 10 Sur 0 -- -- 84
2020-01-18 16:00:00 14.6 4 Sur 13 Sur 0 -- -- 77
2020-01-18 15:00:00 15.6 8 Sudoeste 14 Sudoeste 0 -- -- 71
2020-01-18 14:00:00 15.6 6 Sudoeste 10 Sudoeste 0 -- -- 70
2020-01-18 13:00:00 14.1 4 Sudoeste 7 Sudoeste 0 -- -- 68
2020-01-18 12:00:00 13.8 2 Oeste 6 Oeste 0 -- -- 67
2020-01-18 11:00:00 12.4 0 Calma 4 Nordeste 0 -- -- 76
2020-01-18 10:00:00 11.6 0 Calma 2 Este 0 -- -- 74
2020-01-18 09:00:00 10.5 0 Calma 4 Este 0 -- -- 76
2020-01-18 08:00:00 10.4 0 Calma 4 Este 0 -- -- 77
2020-01-18 07:00:00 10.7 0 Calma 3 Este 0 -- -- 73
2020-01-18 06:00:00 11 0 Calma 8 Este 0 -- -- 66
2020-01-18 05:00:00 10.9 4 Este 9 Nordeste 0 -- -- 67
2020-01-18 04:00:00 10.4 4 Nordeste 7 Este 0 -- -- 70
2020-01-18 03:00:00 10.1 0 Calma 8 Nordeste 0 -- -- 74
2020-01-18 02:00:00 10.7 6 Nordeste 8 Nordeste 0 -- -- 75
2020-01-18 01:00:00 10.8 0 Calma 6 Norte 0 -- -- 75
2020-01-18 00:00:00 11.2 4 Nordeste 6 Nordeste 0 -- -- 75
2020-01-17 23:00:00 11 4 Nordeste 6 Nordeste 0 -- -- 78
2020-01-17 22:00:00 10.9 0 Calma 7 Nordeste 0 -- -- 77
2020-01-17 21:00:00 10.9 3 Este 5 Nordeste 0 -- -- 77
2020-01-17 20:00:00 11.9 3 Nordeste 6 Nordeste 0 -- -- 70
2020-01-17 19:00:00 13 5 Nordeste 7 Este 0 -- -- 67
2020-01-17 18:00:00 15.4 4 Este 8 Este 0 -- -- 62
2020-01-17 17:00:00 16 4 Nordeste 10 Este 0 -- -- 58
2020-01-17 16:00:00 16.6 4 Nordeste 10 Nordeste 0 -- -- 52
2020-01-17 15:00:00 17.2 6 Nordeste 14 Nordeste 0 -- -- 46
2020-01-17 14:00:00 17.9 5 Nordeste 22 Sur 0 -- -- 48
2020-01-17 13:00:00 16.6 5 Este 10 Nordeste 0 -- -- 43
2020-01-17 12:00:00 16.2 4 Este 11 Este 0 -- -- 47
2020-01-17 11:00:00 13.8 2 Sudoeste 7 Sudoeste 0 -- -- 55
2020-01-17 10:00:00 11.6 3 Sudoeste 6 Oeste 0 -- -- 50
2020-01-17 09:00:00 10.2 3 Sur 8 Sur 0 -- -- 47
2020-01-17 08:00:00 10.1 0 Calma 9 Oeste 0 -- -- 47
2020-01-17 07:00:00 9.4 3 Sur 8 Oeste 0 -- -- 52
2020-01-17 06:00:00 10.1 3 Sudoeste 8 Sudoeste 0 -- -- 47
2020-01-17 05:00:00 10.1 0 Calma 9 Sudoeste 0 -- -- 51
2020-01-17 04:00:00 9.7 5 Sur 10 Sudoeste 0 -- -- 49
2020-01-17 03:00:00 9.6 3 Sudoeste 10 Sur 0 -- -- 53
2020-01-17 02:00:00 9.8 4 Sudoeste 10 Norte 0 -- -- 54
2020-01-17 01:00:00 9.3 0 Calma 7 Sur 0 -- -- 65
2020-01-17 00:00:00 9.2 0 Calma 7 Nordeste 0 -- -- 71
2020-01-16 23:00:00 9.6 5 Este 12 Este 0 -- -- 74
2020-01-16 22:00:00 8.6 5 Nordeste 8 Nordeste 0 -- -- 76
2020-01-16 21:00:00 9 0 Calma 3 Este 0 -- -- 85
2020-01-16 20:00:00 9.8 0 Calma 4 Nordeste 0 -- -- 87
2020-01-16 19:00:00 12.1 0 Calma 5 Sudoeste 0 -- -- 81
2020-01-16 18:00:00 16.5 4 Sudoeste 13 Sudoeste 0 -- -- 67
2020-01-16 17:00:00 17.4 7 Sudoeste 14 Sudoeste 0 -- -- 65
2020-01-16 16:00:00 17.5 8 Sudoeste 17 Sudoeste 0 -- -- 63
2020-01-16 15:00:00 17.4 6 Sudoeste 16 Sudoeste 0 -- -- 60
2020-01-16 14:00:00 16.1 6 Sudoeste 14 Sudoeste 0 -- -- 64
2020-01-16 13:00:00 15 5 Nordeste 12 Sudoeste 0 -- -- 67
2020-01-16 12:00:00 14.2 2 Sudeste 11 Oeste 0 -- -- 69
2020-01-16 11:00:00 12.1 0 Calma 7 Nordeste 0 -- -- 67
2020-01-16 10:00:00 9.1 0 Calma 4 Nordeste 0 -- -- 68
2020-01-16 09:00:00 8.1 3 Este 5 Nordeste 0 -- -- 71
2020-01-16 08:00:00 7.5 0 Calma 3 Sudeste 0 -- -- 76
2020-01-16 07:00:00 7.4 0 Calma 3 Sudeste 0 -- -- 83
2020-01-16 06:00:00 6.9 0 Calma 4 Este 0 -- -- 81
2020-01-16 05:00:00 7.1 0 Calma 3 Sudeste 0 -- -- 84
2020-01-16 04:00:00 7.2 0 Calma 2 Sudeste 0 -- -- 85
2020-01-16 03:00:00 7.7 0 Calma 3 Sur 0 -- -- 80
2020-01-16 02:00:00 7.8 0 Calma 2 Sudeste 0 -- -- 75
2020-01-16 01:00:00 8.3 0 Calma 3 Sudeste 0 -- -- 75
2020-01-16 00:00:00 8.9 0 Calma 10 Nordeste 0 -- -- 82
2020-01-15 23:00:00 9.9 2 Este 7 Este 0 -- -- 61
2020-01-15 22:00:00 9.9 0 Calma 4 Sudeste 0 -- -- 60
2020-01-15 21:00:00 10.2 5 Nordeste 7 Nordeste 0 -- -- 59
2020-01-15 20:00:00 10.9 3 Este 4 Nordeste 0 -- -- 59
2020-01-15 19:00:00 12.5 0 Calma 4 Sudoeste 0 -- -- 70
2020-01-15 18:00:00 17.2 5 Sudoeste 11 Sudoeste 0 -- -- 56
2020-01-15 17:00:00 18.5 5 Sudoeste 12 Sudoeste 0 -- -- 53
2020-01-15 16:00:00 18.6 8 Sudoeste 14 Sudoeste 0 -- -- 52
2020-01-15 15:00:00 17.8 7 Sudoeste 13 Sur 0 -- -- 51
2020-01-15 14:00:00 16.7 8 Sudoeste 13 Sudoeste 0 -- -- 56
2020-01-15 13:00:00 16 5 Sudoeste 13 Sudoeste 0 -- -- 53
2020-01-15 12:00:00 14.3 4 Sudoeste 6 Sudoeste 0 -- -- 55
2020-01-15 11:00:00 11.8 2 Sur 3 Oeste 0 -- -- 65
2020-01-15 10:00:00 9.2 0 Calma 7 Sur 0 -- -- 68
2020-01-15 09:00:00 8 2 Sur 5 Sudoeste 0 -- -- 67
2020-01-15 08:00:00 7.7 0 Calma 3 Sudeste 0 -- -- 68
2020-01-15 07:00:00 7.5 0 Calma 3 Nordeste 0 -- -- 76
2020-01-15 06:00:00 7.5 0 Calma 6 Nordeste 0 -- -- 75
2020-01-15 05:00:00 7.7 2 Este 6 Nordeste 0 -- -- 75
2020-01-15 04:00:00 7.5 2 Este 5 Nordeste 0 -- -- 77
2020-01-15 03:00:00 8.1 3 Este 6 Este 0 -- -- 74
2020-01-15 02:00:00 8.5 3 Este 9 Nordeste 0 -- -- 73
2020-01-15 01:00:00 8.9 0 Calma 3 Noroeste 0 -- -- 71
2020-01-15 00:00:00 8.8 0 Calma 7 Nordeste 0 -- -- 72
2020-01-14 23:00:00 8.5 3 Nordeste 6 Nordeste 0 -- -- 74
2020-01-14 22:00:00 8.8 4 Nordeste 6 Nordeste 0 -- -- 71
2020-01-14 21:00:00 8.7 0 Calma 10 Nordeste 0 -- -- 72
2020-01-14 20:00:00 9.1 2 Este 6 Nordeste 0 -- -- 71
2020-01-14 19:00:00 9.9 5 Nordeste 9 Nordeste 0 -- -- 73
2020-01-14 18:00:00 12.6 4 Nordeste 9 Nordeste 0 -- -- 67
2020-01-14 17:00:00 13 5 Nordeste 11 Este 0 -- -- 65
2020-01-14 16:00:00 13.7 5 Este 16 Nordeste 0 -- -- 63
2020-01-14 15:00:00 13.2 8 Nordeste 15 Nordeste 0 -- -- 64
2020-01-14 14:00:00 15 12 Sudoeste 21 Sudoeste 0 -- -- 50
2020-01-14 13:00:00 14.1 12 Sudoeste 30 Sudoeste 0 -- -- 59
2020-01-14 12:00:00 12.3 9 Sudoeste 22 Sudoeste 0 -- -- 65
2020-01-14 11:00:00 9.7 7 Sudoeste 15 Sudoeste 0 -- -- 72
2020-01-14 10:00:00 8.4 3 Este 10 Este 0 -- -- 76
2020-01-14 09:00:00 6.7 3 Este 8 Nordeste 0 -- -- 77
2020-01-14 08:00:00 6.3 3 Este 8 Este 0 -- -- 77
2020-01-14 07:00:00 6.4 5 Este 8 Este 0 -- -- 79
2020-01-14 06:00:00 6.5 5 Este 8 Nordeste 0 -- -- 78
2020-01-14 05:00:00 7 2 Sur 12 Noroeste 0 -- -- 77
2020-01-14 04:00:00 7.7 2 Sudoeste 12 Oeste 0 -- -- 76
2020-01-14 03:00:00 6.5 3 Sur 5 Sur 0 -- -- 82
2020-01-14 02:00:00 7 0 Calma 4 Este 0 -- -- 80
2020-01-14 01:00:00 7.3 0 Calma 8 Nordeste 0 -- -- 87
2020-01-14 00:00:00 7.5 2 Sudeste 8 Nordeste 0 -- -- 90
2020-01-13 23:00:00 7.1 2 Este 5 Nordeste 0 -- -- 94
2020-01-13 22:00:00 7.2 0 Calma 2 Nordeste 0 -- -- 94
2020-01-13 21:00:00 7.5 0 Calma 2 Este 0 -- -- 92
2020-01-13 20:00:00 8.3 0 Calma 4 Sudoeste 0 -- -- 88
2020-01-13 19:00:00 10.4 2 Sudoeste 7 Sur 0 -- -- 78
2020-01-13 18:00:00 13.7 5 Sudoeste 14 Sudoeste 0 -- -- 67
2020-01-13 17:00:00 14.6 8 Sudoeste 17 Sudoeste 0 -- -- 65
2020-01-13 16:00:00 15.1 6 Sur 18 Sudoeste 0 -- -- 63
2020-01-13 15:00:00 14.9 4 Sur 14 Sudeste 0 -- -- 62
2020-01-13 14:00:00 14.4 8 Sudoeste 14 Sudoeste 0 -- -- 63
2020-01-13 13:00:00 13.5 5 Sudoeste 11 Sudoeste 0 -- -- 68
2020-01-13 12:00:00 11.6 3 Este 10 Sudoeste 0 -- -- 73
2020-01-13 11:00:00 9.9 0 Calma 6 Sudeste 0 -- -- 82
2020-01-13 10:00:00 7.2 0 Calma 4 Nordeste 0 -- -- 93
2020-01-13 09:00:00 6.1 3 Nordeste 4 Este 0 -- -- 97
2020-01-13 08:00:00 6 3 Nordeste 4 Nordeste 0 -- -- 97
2020-01-13 07:00:00 6.1 2 Nordeste 5 Nordeste 0 -- -- 96
2020-01-13 06:00:00 6.3 3 Nordeste 4 Nordeste 0 -- -- 97
2020-01-13 05:00:00 6.4 2 Este 4 Este 0 -- -- 97
2020-01-13 04:00:00 6.4 3 Nordeste 5 Nordeste 0 -- -- 96
2020-01-13 03:00:00 6.6 4 Nordeste 6 Nordeste 0 -- -- 93
2020-01-13 02:00:00 6.6 3 Nordeste 5 Nordeste 0 -- -- 94
2020-01-13 01:00:00 6.6 0 Calma 6 Nordeste 0 -- -- 92
2020-01-13 00:00:00 7 3 Nordeste 5 Nordeste 0 -- -- 92
2020-01-12 23:00:00 7.6 0 Calma 10 Norte 0 -- -- 92
2020-01-12 22:00:00 7.8 3 Nordeste 6 Nordeste 0 -- -- 93
2020-01-12 21:00:00 8.2 4 Nordeste 6 Nordeste 0 -- -- 94
2020-01-12 20:00:00 8.8 0 Calma 2 Este 0 -- -- 89
2020-01-12 19:00:00 10.8 0 Calma 7 Sudoeste 0 -- -- 80
2020-01-12 18:00:00 14 5 Sudoeste 12 Sudoeste 0 -- -- 67
2020-01-12 17:00:00 15.9 6 Sudoeste 13 Oeste 0 -- -- 60
2020-01-12 16:00:00 16.4 6 Sudoeste 18 Sudoeste 0 -- -- 61
2020-01-12 15:00:00 16 10 Sudoeste 18 Sudoeste 0 -- -- 62
2020-01-12 14:00:00 15.3 7 Sudoeste 17 Sudoeste 0 -- -- 64
2020-01-12 13:00:00 14.4 8 Sudoeste 15 Sudoeste 0 -- -- 68
2020-01-12 12:00:00 12.9 4 Sudoeste 10 Sudoeste 0 -- -- 74
2020-01-12 11:00:00 10.3 3 Sudoeste 4 Sur 0 -- -- 87
2020-01-12 10:00:00 7.6 0 Calma 3 Nordeste 0 -- -- 95
2020-01-12 09:00:00 6.9 3 Nordeste 5 Este 0 -- -- 94
2020-01-12 08:00:00 6.3 0 Calma 2 Este 0 -- -- 93
2020-01-12 07:00:00 6.7 2 Nordeste 4 Nordeste 0 -- -- 93
2020-01-12 06:00:00 7 2 Nordeste 4 Nordeste 0 -- -- 93
2020-01-12 05:00:00 7.5 2 Este 3 Nordeste 0 -- -- 91
2020-01-12 04:00:00 8.5 0 Calma 2 Este 0 -- -- 89
2020-01-12 03:00:00 8.7 0 Calma 4 Nordeste 0 -- -- 87
2020-01-12 02:00:00 8.8 0 Calma 3 Este 0 -- -- 84
2020-01-12 01:00:00 9.6 0 Calma 13 Norte 0 -- -- 80
2020-01-12 00:00:00 9.3 2 Nordeste 7 Nordeste 0 -- -- 83
2020-01-11 23:00:00 8.1 0 Calma 3 Este 0 -- -- 89
2020-01-11 22:00:00 8 0 Calma 3 Nordeste 0 -- -- 88
2020-01-11 21:00:00 8 2 Nordeste 4 Nordeste 0 -- -- 87
2020-01-11 20:00:00 8.6 0 Calma 3 Nordeste 0 -- -- 83
2020-01-11 19:00:00 10 2 Nordeste 5 Sudoeste 0 -- -- 76
2020-01-11 18:00:00 14.1 4 Sudoeste 12 Sudoeste 0 -- -- 61
2020-01-11 17:00:00 15.7 8 Sudoeste 18 Sudoeste 0 -- -- 55
2020-01-11 16:00:00 16.4 8 Sudoeste 19 Sudoeste 0 -- -- 54
2020-01-11 15:00:00 15.4 6 Sudoeste 14 Sur 0 -- -- 59
2020-01-11 14:00:00 15 5 Sur 22 Sudoeste 0 -- -- 58
2020-01-11 13:00:00 14.8 7 Sudoeste 18 Sudoeste 0 -- -- 65
2020-01-11 12:00:00 13.8 3 Sudoeste 10 Oeste 0 -- -- 66
2020-01-11 11:00:00 11.9 3 Sur 6 Nordeste 0 -- -- 77
2020-01-11 10:00:00 9.7 0 Calma 3 Norte 0 -- -- 86
2020-01-11 09:00:00 8 2 Nordeste 5 Nordeste 0 -- -- 88
2020-01-11 08:00:00 8.4 3 Nordeste 5 Nordeste 0 -- -- 84
2020-01-11 07:00:00 8.6 4 Nordeste 5 Nordeste 0 -- -- 81
2020-01-11 06:00:00 9.1 3 Este 20 Norte 0 -- -- 77
2020-01-11 05:00:00 10 2 Nordeste 14 Nordeste 0 -- -- 71
2020-01-11 04:00:00 9.4 5 Nordeste 17 Norte 0 -- -- 65
2020-01-11 03:00:00 10.1 10 Nordeste 21 Nordeste 0 -- -- 60
2020-01-11 02:00:00 10.2 11 Nordeste 22 Nordeste 0 -- -- 55
2020-01-11 01:00:00 11.2 10 Nordeste 29 Nordeste 0 -- -- 55
2020-01-11 00:00:00 11.3 17 Nordeste 31 Nordeste 0 -- -- 52
2020-01-10 23:00:00 11.6 14 Nordeste 36 Norte 0 -- -- 48
2020-01-10 22:00:00 11.5 10 Norte 35 Nordeste 0 -- -- 50
2020-01-10 21:00:00 11.4 7 Nordeste 27 Nordeste 0 -- -- 51
2020-01-10 20:00:00 11.3 9 Norte 26 Norte 0 -- -- 54
2020-01-10 19:00:00 11.6 11 Norte 22 Nordeste 0 -- -- 62
2020-01-10 18:00:00 11.8 5 Norte 15 Nordeste 0 -- -- 63
2020-01-10 17:00:00 13.1 7 Nordeste 14 Norte 0 -- -- 58
2020-01-10 16:00:00 13.7 6 Nordeste 13 Este 0 -- -- 56
2020-01-10 15:00:00 14.9 4 Sudeste 13 Norte 0 -- -- 56
2020-01-10 14:00:00 14.4 5 Este 19 Nordeste 0 -- -- 60
2020-01-10 13:00:00 14.3 5 Nordeste 17 Este 0 -- -- 61
2020-01-10 12:00:00 13.3 5 Nordeste 18 Nordeste 0 -- -- 67
2020-01-10 11:00:00 11.9 7 Nordeste 14 Nordeste 0 -- -- 73
2020-01-10 10:00:00 9.6 5 Este 9 Este 0 -- -- 81
2020-01-10 09:00:00 9.6 4 Nordeste 23 Nordeste 0 -- -- 79
2020-01-10 08:00:00 10.1 12 Nordeste 18 Nordeste 0 -- -- 77
2020-01-10 07:00:00 10.3 11 Nordeste 18 Nordeste 0 -- -- 75
2020-01-10 06:00:00 10.2 10 Nordeste 17 Nordeste 0 -- -- 79
2020-01-10 05:00:00 7.8 4 Este 10 Nordeste 0 -- -- 84
2020-01-10 04:00:00 7.7 0 Calma 3 Este 0 -- -- 87
2020-01-10 03:00:00 7.8 0 Calma 5 Nordeste 0 -- -- 88
2020-01-10 02:00:00 8.5 3 Este 14 Nordeste 0 -- -- 86
2020-01-10 01:00:00 7.5 6 Nordeste 11 Nordeste 0 -- -- 95
2020-01-10 00:00:00 7.9 4 Nordeste 8 Este 0 -- -- 95
2020-01-09 23:00:00 7.6 2 Nordeste 5 Nordeste 0 -- -- 96
2020-01-09 22:00:00 8.2 5 Nordeste 7 Nordeste 0 -- -- 95
2020-01-09 21:00:00 8.3 0 Calma 2 Nordeste 0 -- -- 94
2020-01-09 20:00:00 9.9 0 Calma 5 Sudoeste 0 -- -- 88
2020-01-09 19:00:00 10.9 0 Calma 4 Sudoeste 0 -- -- 89
2020-01-09 18:00:00 11.2 2 Sudoeste 6 Sudoeste 0 -- -- 87
2020-01-09 17:00:00 11.4 2 Sudoeste 8 Sudoeste 0 -- -- 86
2020-01-09 16:00:00 11.7 0 Calma 8 Sudoeste 0 -- -- 84
2020-01-09 15:00:00 12.2 3 Sudoeste 9 Sur 0 -- -- 81
2020-01-09 14:00:00 12.9 3 Sudeste 10 Sudoeste 0 -- -- 80
2020-01-09 13:00:00 12.1 5 Nordeste 12 Nordeste 0 -- -- 81
2020-01-09 12:00:00 11.3 5 Nordeste 12 Nordeste 0 -- -- 84
2020-01-09 11:00:00 10.3 3 Nordeste 9 Nordeste 0 -- -- 80
2020-01-09 10:00:00 9.3 0 Calma 7 Nordeste 0 -- -- 89
2020-01-09 09:00:00 8.3 0 Calma 3 Nordeste 0 -- -- 91
2020-01-09 08:00:00 7.4 2 Nordeste 4 Nordeste 0 -- -- 94
2020-01-09 07:00:00 6.7 2 Nordeste 3 Nordeste 0 -- -- 95
2020-01-09 06:00:00 6.9 0 Calma 4 Sur 0 -- -- 96
2020-01-09 05:00:00 6.6 0 Calma 2 Este 0 -- -- 96
2020-01-09 04:00:00 6.8 0 Calma 5 Nordeste 0 -- -- 95
2020-01-09 03:00:00 7.3 0 Calma 4 Este 0 -- -- 93
2020-01-09 02:00:00 7.5 3 Nordeste 6 Nordeste 0 -- -- 96
2020-01-09 01:00:00 7.8 3 Nordeste 6 Nordeste 0 -- -- 97
2020-01-09 00:00:00 8.5 2 Este 9 Nordeste 0 -- -- 93
2020-01-08 23:00:00 9.9 3 Nordeste 7 Nordeste 0 -- -- 93
2020-01-08 22:00:00 9.9 0 Calma 6 Nordeste 0 -- -- 95
2020-01-08 21:00:00 10 0 Calma 8 Nordeste 0 -- -- 96
2020-01-08 20:00:00 10.2 0 Calma 6 Nordeste 0 -- -- 95
2020-01-08 19:00:00 10.3 4 Nordeste 7 Nordeste 0 -- -- 92
2020-01-08 18:00:00 14.2 4 Nordeste 9 Sudoeste 0 -- -- 77
2020-01-08 17:00:00 17.6 6 Sudoeste 11 Sudoeste 0 -- -- 67
2020-01-08 16:00:00 17.4 5 Sudoeste 13 Oeste 0 -- -- 69
2020-01-08 15:00:00 17.2 5 Sudoeste 14 Sudoeste 0 -- -- 70
2020-01-08 14:00:00 15.8 7 Sudoeste 11 Sudoeste 0 -- -- 73
2020-01-08 13:00:00 14.5 6 Sudoeste 10 Sudoeste 0 -- -- 74
2020-01-08 12:00:00 12.9 2 Sur 4 Sudeste 0 -- -- 84
2020-01-08 11:00:00 10.5 0 Calma 7 Nordeste 0 -- -- 87
2020-01-08 10:00:00 7.2 0 Calma 6 Este 0 -- -- 81
2020-01-08 09:00:00 6.4 0 Calma 2 Nordeste 0 -- -- 87
2020-01-08 08:00:00 6.6 0 Calma 3 Noroeste 0 -- -- 77
2020-01-08 07:00:00 6.5 0 Calma 10 Nordeste 0 -- -- 71
2020-01-08 06:00:00 6 0 Calma 3 Sur 0 -- -- 81
2020-01-08 05:00:00 5.7 0 Calma 5 Nordeste 0 -- -- 88
2020-01-08 04:00:00 5.9 0 Calma 4 Nordeste 0 -- -- 95
2020-01-08 03:00:00 6.1 2 Nordeste 4 Este 0 -- -- 94
2020-01-08 02:00:00 6.9 2 Nordeste 5 Nordeste 0 -- -- 98
2020-01-08 01:00:00 6.9 0 Calma 2 Sudeste 0 -- -- 99
2020-01-08 00:00:00 7.1 3 Nordeste 5 Este 0 -- -- 98
2020-01-07 23:00:00 7.2 0 Calma 2 Este 0 -- -- 97
2020-01-07 22:00:00 7.6 0 Calma 4 Este 0 -- -- 96
2020-01-07 21:00:00 8.3 0 Calma 8 Nordeste 0 -- -- 95
2020-01-07 20:00:00 8.8 3 Nordeste 6 Nordeste 0 -- -- 94
2020-01-07 19:00:00 9.7 3 Nordeste 6 Nordeste 0 -- -- 90
2020-01-07 18:00:00 13.2 3 Nordeste 9 Sudoeste 0 -- -- 76
2020-01-07 17:00:00 13.3 4 Este 9 Este 0 -- -- 77
2020-01-07 16:00:00 15.1 4 Sur 8 Sudoeste 0 -- -- 70
2020-01-07 15:00:00 15 4 Sudoeste 17 Sudoeste 0 -- -- 73
2020-01-07 14:00:00 14.9 7 Sudoeste 13 Sudoeste 0 -- -- 77
2020-01-07 13:00:00 13 3 Este 11 Nordeste 0 -- -- 76
2020-01-07 12:00:00 11.9 3 Este 9 Nordeste 0 -- -- 79
2020-01-07 11:00:00 10.3 3 Nordeste 6 Nordeste 0 -- -- 87
2020-01-07 10:00:00 7.4 2 Este 4 Este 0 -- -- 96
2020-01-07 09:00:00 5.9 0 Calma 4 Nordeste 0 -- -- 96
2020-01-07 08:00:00 5.8 0 Calma 5 Este 0 -- -- 95
2020-01-07 07:00:00 6.2 3 Nordeste 9 Nordeste 0 -- -- 94
2020-01-07 06:00:00 6.1 0 Calma 3 Norte 0 -- -- 96
2020-01-07 05:00:00 5.9 0 Calma 0 Calma 0 -- -- 96
2020-01-07 04:00:00 6.1 2 Nordeste 4 Nordeste 0 -- -- 96
2020-01-07 03:00:00 6.2 2 Nordeste 4 Nordeste 0 -- -- 96
2020-01-07 02:00:00 6.2 2 Nordeste 3 Nordeste 0 -- -- 96
2020-01-07 01:00:00 6.2 0 Calma 3 Sudeste 0 -- -- 96
2020-01-07 00:00:00 6.7 0 Calma 3 Sudeste 0 -- -- 98
2020-01-06 23:00:00 6.8 2 Sudeste 4 Nordeste 0 -- -- 96
2020-01-06 22:00:00 7.1 0 Calma 3 Nordeste 0 -- -- 96
2020-01-06 21:00:00 7.4 0 Calma 4 Nordeste 0 -- -- 94
2020-01-06 20:00:00 8 3 Nordeste 6 Este 0 -- -- 92
2020-01-06 19:00:00 8.9 3 Nordeste 5 Nordeste 0 -- -- 90
2020-01-06 18:00:00 10.7 3 Nordeste 6 Nordeste 0 -- -- 82
2020-01-06 17:00:00 11.9 4 Nordeste 12 Este 0 -- -- 74
2020-01-06 16:00:00 13.6 3 Nordeste 16 Nordeste 0 -- -- 66
2020-01-06 15:00:00 13.4 6 Nordeste 15 Nordeste 0 -- -- 68
2020-01-06 14:00:00 13.5 6 Nordeste 17 Nordeste 0 -- -- 66
2020-01-06 13:00:00 13.4 4 Nordeste 17 Nordeste 0 -- -- 68
2020-01-06 12:00:00 12.2 5 Nordeste 15 Nordeste 0 -- -- 71
2020-01-06 11:00:00 10.8 4 Nordeste 9 Nordeste 0 -- -- 77
2020-01-06 10:00:00 8.2 2 Este 5 Este 0 -- -- 88